Clarksville, Maryland
Current Conditions -  °F | °C
As of 10:35 AM on Saturday 25 Oct 2014 (Local Time) from KGAI Reporting Station
Clear Clear  
Wind Chill: 61°   Ceiling: Unl
Heat Index: 61°   Visibility: 10mi
Dew Point: 43°   Wind: 10mph
Humidity: 52%   Direction: 270°W
Pressure: 29.99"   Gusts: NA
Location:  39.21°N, 76.94°W
Report Text: KGAI 251435Z 27009KT 10SM CLR 16/06 A2999 RMK AO1
Loading
Personal Weather Stations






























Interactive Weather Map
Tropical Storm Tracking
New forecast layout! Learn more

10-Day Weather Forecast

Advertisements
Track Severe Weather on mobile